sensor_id;sensor_type;location;lat;lon;timestamp;pressure;altitude;pressure_sealevel;temperature;humidity
64158;BME280;50449;51.528;5.076;2023-01-13T00:02:23;100330.03;;;11.31;72.49
64158;BME280;50449;51.528;5.076;2023-01-13T00:04:49;100328.16;;;11.32;72.36
64158;BME280;50449;51.528;5.076;2023-01-13T00:07:14;100325.69;;;11.30;72.20
64158;BME280;50449;51.528;5.076;2023-01-13T00:09:39;100314.09;;;11.30;72.16
64158;BME280;50449;51.528;5.076;2023-01-13T00:12:04;100302.47;;;11.29;72.17
64158;BME280;50449;51.528;5.076;2023-01-13T00:14:33;100297.28;;;11.27;72.14
64158;BME280;50449;51.528;5.076;2023-01-13T00:16:59;100290.28;;;11.26;72.36
64158;BME280;50449;51.528;5.076;2023-01-13T00:19:24;100282.97;;;11.27;72.23
64158;BME280;50449;51.528;5.076;2023-01-13T00:21:49;100295.91;;;11.25;72.20
64158;BME280;50449;51.528;5.076;2023-01-13T00:24:14;100290.75;;;11.23;72.25
64158;BME280;50449;51.528;5.076;2023-01-13T00:26:40;100291.84;;;11.22;72.18
64158;BME280;50449;51.528;5.076;2023-01-13T00:29:05;100279.41;;;11.21;72.01
64158;BME280;50449;51.528;5.076;2023-01-13T00:31:30;100275.88;;;11.21;72.21
64158;BME280;50449;51.528;5.076;2023-01-13T00:33:56;100273.16;;;11.21;72.16
64158;BME280;50449;51.528;5.076;2023-01-13T00:36:21;100278.84;;;11.19;72.34
64158;BME280;50449;51.528;5.076;2023-01-13T00:38:47;100281.81;;;11.18;72.13
64158;BME280;50449;51.528;5.076;2023-01-13T00:41:13;100272.88;;;11.17;72.15
64158;BME280;50449;51.528;5.076;2023-01-13T00:43:39;100272.06;;;11.17;72.18
64158;BME280;50449;51.528;5.076;2023-01-13T00:46:04;100281.25;;;11.16;72.08
64158;BME280;50449;51.528;5.076;2023-01-13T00:48:30;100284.22;;;11.14;72.05
64158;BME280;50449;51.528;5.076;2023-01-13T00:50:57;100282.56;;;11.13;72.20
64158;BME280;50449;51.528;5.076;2023-01-13T00:53:23;100275.53;;;11.12;72.12
64158;BME280;50449;51.528;5.076;2023-01-13T00:55:48;100287.41;;;11.11;72.16
64158;BME280;50449;51.528;5.076;2023-01-13T00:58:14;100281.19;;;11.11;72.16
64158;BME280;50449;51.528;5.076;2023-01-13T01:00:39;100271.72;;;11.08;71.91
64158;BME280;50449;51.528;5.076;2023-01-13T01:03:06;100286.88;;;11.09;72.03
64158;BME280;50449;51.528;5.076;2023-01-13T01:05:33;100275.50;;;11.07;72.01
64158;BME280;50449;51.528;5.076;2023-01-13T01:07:58;100280.34;;;11.05;71.92
64158;BME280;50449;51.528;5.076;2023-01-13T01:10:23;100281.44;;;11.04;72.09
64158;BME280;50449;51.528;5.076;2023-01-13T01:12:48;100277.88;;;11.03;71.91
64158;BME280;50449;51.528;5.076;2023-01-13T01:15:15;100274.38;;;11.03;71.94
64158;BME280;50449;51.528;5.076;2023-01-13T01:17:40;100270.06;;;11.02;72.01
64158;BME280;50449;51.528;5.076;2023-01-13T01:20:05;100260.28;;;11.01;71.82
64158;BME280;50449;51.528;5.076;2023-01-13T01:22:31;100266.78;;;11.00;71.87
64158;BME280;50449;51.528;5.076;2023-01-13T01:24:56;100268.13;;;10.97;71.77
64158;BME280;50449;51.528;5.076;2023-01-13T01:27:22;100270.00;;;10.97;71.82
64158;BME280;50449;51.528;5.076;2023-01-13T01:29:47;100268.34;;;10.96;71.69
64158;BME280;50449;51.528;5.076;2023-01-13T01:32:12;100274.03;;;10.94;71.77
64158;BME280;50449;51.528;5.076;2023-01-13T01:34:37;100268.88;;;10.93;71.86
64158;BME280;50449;51.528;5.076;2023-01-13T01:37:03;100279.97;;;10.91;71.99
64158;BME280;50449;51.528;5.076;2023-01-13T01:39:28;100274.81;;;10.90;71.83
64158;BME280;50449;51.528;5.076;2023-01-13T01:41:54;100275.88;;;10.89;71.57
64158;BME280;50449;51.528;5.076;2023-01-13T01:47:06;100276.13;;;10.87;71.94
64158;BME280;50449;51.528;5.076;2023-01-13T01:49:32;100285.31;;;10.86;71.97
64158;BME280;50449;51.528;5.076;2023-01-13T01:54:25;100278.53;;;10.83;71.79
64158;BME280;50449;51.528;5.076;2023-01-13T01:56:52;100283.94;;;10.83;71.68
64158;BME280;50449;51.528;5.076;2023-01-13T01:59:18;100285.81;;;10.83;71.62
64158;BME280;50449;51.528;5.076;2023-01-13T02:01:44;100286.09;;;10.81;71.56
64158;BME280;50449;51.528;5.076;2023-01-13T02:04:14;100279.03;;;10.80;71.60
64158;BME280;50449;51.528;5.076;2023-01-13T02:06:41;100282.00;;;10.79;71.56
64158;BME280;50449;51.528;5.076;2023-01-13T02:09:06;100285.75;;;10.78;71.55
64158;BME280;50449;51.528;5.076;2023-01-13T02:11:33;100284.94;;;10.77;71.58
64158;BME280;50449;51.528;5.076;2023-01-13T02:14:19;100296.84;;;10.76;71.71
64158;BME280;50449;51.528;5.076;2023-01-13T02:19:28;100292.75;;;10.74;71.71
64158;BME280;50449;51.528;5.076;2023-01-13T02:22:09;100302.72;;;10.73;71.51
64158;BME280;50449;51.528;5.076;2023-01-13T02:27:30;100292.44;;;10.70;71.33
64158;BME280;50449;51.528;5.076;2023-01-13T02:33:02;100297.28;;;10.68;71.60
64158;BME280;50449;51.528;5.076;2023-01-13T02:37:56;100274.28;;;10.66;71.43
64158;BME280;50449;51.528;5.076;2023-01-13T02:40:24;100283.47;;;10.65;71.60
64158;BME280;50449;51.528;5.076;2023-01-13T02:42:52;100269.16;;;10.64;71.57
64158;BME280;50449;51.528;5.076;2023-01-13T02:45:45;100267.50;;;10.63;71.56
64158;BME280;50449;51.528;5.076;2023-01-13T02:48:15;100262.38;;;10.61;71.58
64158;BME280;50449;51.528;5.076;2023-01-13T02:50:43;100258.88;;;10.61;71.51
64158;BME280;50449;51.528;5.076;2023-01-13T02:53:11;100249.13;;;10.60;71.45
64158;BME280;50449;51.528;5.076;2023-01-13T02:55:40;100255.59;;;10.59;71.66
64158;BME280;50449;51.528;5.076;2023-01-13T02:58:07;100257.75;;;10.57;71.38
64158;BME280;50449;51.528;5.076;2023-01-13T03:00:34;100253.41;;;10.56;71.49
64158;BME280;50449;51.528;5.076;2023-01-13T03:03:00;100254.47;;;10.55;71.36
64158;BME280;50449;51.528;5.076;2023-01-13T03:05:26;100248.00;;;10.56;71.40
64158;BME280;50449;51.528;5.076;2023-01-13T03:10:41;100260.38;;;10.52;71.40
64158;BME280;50449;51.528;5.076;2023-01-13T03:13:50;100256.06;;;10.51;71.40
64158;BME280;50449;51.528;5.076;2023-01-13T03:18:51;100237.66;;;10.48;71.24
64158;BME280;50449;51.528;5.076;2023-01-13T03:23:51;100237.34;;;10.44;71.35
64158;BME280;50449;51.528;5.076;2023-01-13T03:26:23;100244.06;;;10.42;71.12
64158;BME280;50449;51.528;5.076;2023-01-13T03:29:00;100237.88;;;10.41;71.08
64158;BME280;50449;51.528;5.076;2023-01-13T03:31:28;100235.41;;;10.39;70.75
64158;BME280;50449;51.528;5.076;2023-01-13T03:33:56;100228.63;;;10.37;70.88
64158;BME280;50449;51.528;5.076;2023-01-13T03:36:23;100234.28;;;10.35;70.86
64158;BME280;50449;51.528;5.076;2023-01-13T03:38:51;100246.97;;;10.35;70.93
64158;BME280;50449;51.528;5.076;2023-01-13T03:41:20;100236.44;;;10.33;70.81
64158;BME280;50449;51.528;5.076;2023-01-13T03:43:48;100244.78;;;10.32;70.98
64158;BME280;50449;51.528;5.076;2023-01-13T03:46:37;100240.47;;;10.31;70.90
64158;BME280;50449;51.528;5.076;2023-01-13T03:49:06;100228.00;;;10.30;70.81
64158;BME280;50449;51.528;5.076;2023-01-13T03:51:33;100234.50;;;10.29;70.77
64158;BME280;50449;51.528;5.076;2023-01-13T03:54:01;100240.09;;;10.27;70.97
64158;BME280;50449;51.528;5.076;2023-01-13T03:56:30;100251.75;;;10.28;70.70
64158;BME280;50449;51.528;5.076;2023-01-13T03:58:58;100250.91;;;10.27;71.14
64158;BME280;50449;51.528;5.076;2023-01-13T04:04:08;100265.72;;;10.25;70.61
64158;BME280;50449;51.528;5.076;2023-01-13T04:06:54;100260.59;;;10.23;70.93
64158;BME280;50449;51.528;5.076;2023-01-13T04:12:27;100285.13;;;10.22;70.79
64158;BME280;50449;51.528;5.076;2023-01-13T04:14:44;100285.13;;;10.22;70.92
64158;BME280;50449;51.528;5.076;2023-01-13T04:17:10;100288.91;;;10.21;70.97
64158;BME280;50449;51.528;5.076;2023-01-13T04:19:35;100276.44;;;10.19;70.75
64158;BME280;50449;51.528;5.076;2023-01-13T04:22:01;100289.13;;;10.19;70.77
64158;BME280;50449;51.528;5.076;2023-01-13T04:24:26;100294.53;;;10.19;70.84
64158;BME280;50449;51.528;5.076;2023-01-13T04:26:52;100291.84;;;10.19;70.77
64158;BME280;50449;51.528;5.076;2023-01-13T04:29:17;100297.22;;;10.19;71.00
64158;BME280;50449;51.528;5.076;2023-01-13T04:31:42;100291.25;;;10.17;70.98
64158;BME280;50449;51.528;5.076;2023-01-13T04:34:09;100287.75;;;10.16;71.01
64158;BME280;50449;51.528;5.076;2023-01-13T04:36:34;100286.94;;;10.16;70.96
64158;BME280;50449;51.528;5.076;2023-01-13T04:38:59;100286.13;;;10.15;70.87
64158;BME280;50449;51.528;5.076;2023-01-13T04:41:25;100282.88;;;10.13;70.74
64158;BME280;50449;51.528;5.076;2023-01-13T04:43:50;100288.25;;;10.13;70.99
64158;BME280;50449;51.528;5.076;2023-01-13T04:46:15;100281.22;;;10.12;71.13
64158;BME280;50449;51.528;5.076;2023-01-13T04:48:40;100279.59;;;10.11;71.13
64158;BME280;50449;51.528;5.076;2023-01-13T04:51:06;100280.41;;;10.12;71.06
64158;BME280;50449;51.528;5.076;2023-01-13T04:53:31;100286.88;;;10.11;71.15
64158;BME280;50449;51.528;5.076;2023-01-13T04:55:56;100273.63;;;10.09;71.06
64158;BME280;50449;51.528;5.076;2023-01-13T04:58:21;100277.13;;;10.10;71.25
64158;BME280;50449;51.528;5.076;2023-01-13T05:00:48;100281.72;;;10.09;71.23
64158;BME280;50449;51.528;5.076;2023-01-13T05:03:14;100276.31;;;10.09;71.22
64158;BME280;50449;51.528;5.076;2023-01-13T05:05:39;100262.03;;;10.09;71.17
64158;BME280;50449;51.528;5.076;2023-01-13T05:08:04;100278.22;;;10.09;71.25
64158;BME280;50449;51.528;5.076;2023-01-13T05:10:29;100276.56;;;10.08;71.18
64158;BME280;50449;51.528;5.076;2023-01-13T05:12:55;100274.94;;;10.07;71.11
64158;BME280;50449;51.528;5.076;2023-01-13T05:15:39;100279.53;;;10.06;71.11
64158;BME280;50449;51.528;5.076;2023-01-13T05:18:23;100276.84;;;10.06;71.20
64158;BME280;50449;51.528;5.076;2023-01-13T05:20:48;100275.19;;;10.05;71.23
64158;BME280;50449;51.528;5.076;2023-01-13T05:23:14;100283.56;;;10.04;71.07
64158;BME280;50449;51.528;5.076;2023-01-13T05:25:58;100290.84;;;10.03;71.05
64158;BME280;50449;51.528;5.076;2023-01-13T05:28:23;100282.75;;;10.03;71.13
64158;BME280;50449;51.528;5.076;2023-01-13T05:30:48;100292.69;;;10.03;71.14
64158;BME280;50449;51.528;5.076;2023-01-13T05:33:15;100287.56;;;10.01;70.89
64158;BME280;50449;51.528;5.076;2023-01-13T05:35:42;100289.44;;;10.01;71.03
64158;BME280;50449;51.528;5.076;2023-01-13T05:38:08;100295.91;;;10.00;71.14
64158;BME280;50449;51.528;5.076;2023-01-13T05:40:33;100303.19;;;9.99;71.18
64158;BME280;50449;51.528;5.076;2023-01-13T05:43:18;100294.28;;;9.99;70.96
64158;BME280;50449;51.528;5.076;2023-01-13T05:45:44;100306.97;;;9.98;70.91
64158;BME280;50449;51.528;5.076;2023-01-13T05:48:10;100302.59;;;9.97;70.97
64158;BME280;50449;51.528;5.076;2023-01-13T05:50:35;100300.19;;;9.95;71.09
64158;BME280;50449;51.528;5.076;2023-01-13T05:53:00;100302.03;;;9.95;70.77
64158;BME280;50449;51.528;5.076;2023-01-13T05:55:26;100307.69;;;9.93;71.08
64158;BME280;50449;51.528;5.076;2023-01-13T05:57:51;100308.50;;;9.94;70.93
64158;BME280;50449;51.528;5.076;2023-01-13T06:00:17;100312.28;;;9.93;71.12
64158;BME280;50449;51.528;5.076;2023-01-13T06:02:42;100307.94;;;9.92;70.91
64158;BME280;50449;51.528;5.076;2023-01-13T06:05:08;100313.59;;;9.90;71.08
64158;BME280;50449;51.528;5.076;2023-01-13T06:07:33;100326.00;;;9.91;70.95
64158;BME280;50449;51.528;5.076;2023-01-13T06:09:58;100317.34;;;9.89;70.92
64158;BME280;50449;51.528;5.076;2023-01-13T06:12:23;100317.34;;;9.89;71.25
64158;BME280;50449;51.528;5.076;2023-01-13T06:14:49;100316.53;;;9.89;70.98
64158;BME280;50449;51.528;5.076;2023-01-13T06:17:14;100315.72;;;9.88;71.03
64158;BME280;50449;51.528;5.076;2023-01-13T06:19:39;100313.25;;;9.87;71.11
64158;BME280;50449;51.528;5.076;2023-01-13T06:22:15;100328.63;;;9.86;70.98
64158;BME280;50449;51.528;5.076;2023-01-13T06:24:41;100335.09;;;9.85;71.27
64158;BME280;50449;51.528;5.076;2023-01-13T06:27:07;100346.94;;;9.84;70.99
64158;BME280;50449;51.528;5.076;2023-01-13T06:29:32;100355.03;;;9.84;71.14
64158;BME280;50449;51.528;5.076;2023-01-13T06:31:59;100349.06;;;9.82;70.91
64158;BME280;50449;51.528;5.076;2023-01-13T06:34:25;100337.47;;;9.82;70.97
64158;BME280;50449;51.528;5.076;2023-01-13T06:36:51;100342.06;;;9.81;70.96
64158;BME280;50449;51.528;5.076;2023-01-13T06:39:18;100332.31;;;9.80;70.91
64158;BME280;50449;51.528;5.076;2023-01-13T06:41:44;100338.78;;;9.79;70.74
64158;BME280;50449;51.528;5.076;2023-01-13T06:44:30;100335.28;;;9.79;70.61
64158;BME280;50449;51.528;5.076;2023-01-13T06:46:55;100326.59;;;9.77;70.97
64158;BME280;50449;51.528;5.076;2023-01-13T06:49:21;100335.78;;;9.75;70.74
64158;BME280;50449;51.528;5.076;2023-01-13T06:51:46;100343.88;;;9.75;70.92
64158;BME280;50449;51.528;5.076;2023-01-13T06:54:11;100346.00;;;9.73;70.72
64158;BME280;50449;51.528;5.076;2023-01-13T06:56:36;100335.19;;;9.73;70.66
64158;BME280;50449;51.528;5.076;2023-01-13T06:59:02;100340.81;;;9.72;70.87
64158;BME280;50449;51.528;5.076;2023-01-13T07:01:27;100338.13;;;9.72;70.73
64158;BME280;50449;51.528;5.076;2023-01-13T07:03:52;100343.78;;;9.70;70.72
64158;BME280;50449;51.528;5.076;2023-01-13T07:06:18;100335.94;;;9.69;70.85
64158;BME280;50449;51.528;5.076;2023-01-13T07:08:43;100333.22;;;9.69;70.74
64158;BME280;50449;51.528;5.076;2023-01-13T07:11:08;100346.94;;;9.67;70.62
64158;BME280;50449;51.528;5.076;2023-01-13T07:13:33;100349.66;;;9.67;70.85
64158;BME280;50449;51.528;5.076;2023-01-13T07:16:17;100355.31;;;9.66;70.87
64158;BME280;50449;51.528;5.076;2023-01-13T07:18:42;100354.50;;;9.65;70.80
64158;BME280;50449;51.528;5.076;2023-01-13T07:21:08;100360.13;;;9.64;70.92
64158;BME280;50449;51.528;5.076;2023-01-13T07:23:38;100349.34;;;9.64;70.94
64158;BME280;50449;51.528;5.076;2023-01-13T07:26:04;100347.44;;;9.64;70.66
64158;BME280;50449;51.528;5.076;2023-01-13T07:28:30;100339.63;;;9.63;70.95
64158;BME280;50449;51.528;5.076;2023-01-13T07:30:56;100334.22;;;9.63;70.82
64158;BME280;50449;51.528;5.076;2023-01-13T07:33:21;100338.78;;;9.62;70.74
64158;BME280;50449;51.528;5.076;2023-01-13T07:35:47;100331.78;;;9.61;70.78
64158;BME280;50449;51.528;5.076;2023-01-13T07:38:13;100348.75;;;9.62;70.84
64158;BME280;50449;51.528;5.076;2023-01-13T07:40:39;100342.56;;;9.61;70.70
64158;BME280;50449;51.528;5.076;2023-01-13T07:43:04;100346.56;;;9.59;70.65
64158;BME280;50449;51.528;5.076;2023-01-13T07:45:48;100348.44;;;9.58;70.66
64158;BME280;50449;51.528;5.076;2023-01-13T07:48:13;100352.19;;;9.57;70.32
64158;BME280;50449;51.528;5.076;2023-01-13T07:50:38;100364.88;;;9.57;70.51
64158;BME280;50449;51.528;5.076;2023-01-13T07:53:03;100371.31;;;9.56;70.48
64158;BME280;50449;51.528;5.076;2023-01-13T07:55:29;100375.06;;;9.54;70.56
64158;BME280;50449;51.528;5.076;2023-01-13T07:57:54;100387.75;;;9.54;70.51
64158;BME280;50449;51.528;5.076;2023-01-13T08:00:19;100382.59;;;9.52;70.63
64158;BME280;50449;51.528;5.076;2023-01-13T08:02:45;100388.00;;;9.52;70.48
64158;BME280;50449;51.528;5.076;2023-01-13T08:05:10;100392.56;;;9.52;70.54
64158;BME280;50449;51.528;5.076;2023-01-13T08:07:35;100390.94;;;9.51;70.38
64158;BME280;50449;51.528;5.076;2023-01-13T08:10:01;100396.31;;;9.51;70.49
64158;BME280;50449;51.528;5.076;2023-01-13T08:12:27;100387.66;;;9.49;70.59
64158;BME280;50449;51.528;5.076;2023-01-13T08:15:11;100394.94;;;9.48;70.53
64158;BME280;50449;51.528;5.076;2023-01-13T08:17:36;100402.22;;;9.48;70.52
64158;BME280;50449;51.528;5.076;2023-01-13T08:20:02;100404.06;;;9.47;70.57
64158;BME280;50449;51.528;5.076;2023-01-13T08:22:28;100401.38;;;9.47;70.78
64158;BME280;50449;51.528;5.076;2023-01-13T08:24:55;100399.75;;;9.46;70.50
64158;BME280;50449;51.528;5.076;2023-01-13T08:27:20;100402.44;;;9.46;70.53
64158;BME280;50449;51.528;5.076;2023-01-13T08:29:45;100409.72;;;9.46;70.53
64158;BME280;50449;51.528;5.076;2023-01-13T08:32:10;100407.03;;;9.46;70.53
64158;BME280;50449;51.528;5.076;2023-01-13T08:34:36;100398.13;;;9.45;70.48
64158;BME280;50449;51.528;5.076;2023-01-13T08:37:01;100405.38;;;9.45;70.44
64158;BME280;50449;51.528;5.076;2023-01-13T08:39:26;100402.69;;;9.45;70.61
64158;BME280;50449;51.528;5.076;2023-01-13T08:41:51;100406.44;;;9.44;70.33
64158;BME280;50449;51.528;5.076;2023-01-13T08:44:21;100405.88;;;9.42;70.68
64158;BME280;50449;51.528;5.076;2023-01-13T08:46:46;100404.81;;;9.43;70.54
64158;BME280;50449;51.528;5.076;2023-01-13T08:49:11;100406.66;;;9.42;70.64
64158;BME280;50449;51.528;5.076;2023-01-13T08:51:36;100407.75;;;9.41;70.37
64158;BME280;50449;51.528;5.076;2023-01-13T08:54:02;100396.16;;;9.41;70.53
64158;BME280;50449;51.528;5.076;2023-01-13T08:56:28;100403.44;;;9.40;70.62
64158;BME280;50449;51.528;5.076;2023-01-13T08:58:56;100423.91;;;9.41;70.49
64158;BME280;50449;51.528;5.076;2023-01-13T09:01:21;100417.94;;;9.39;70.35
64158;BME280;50449;51.528;5.076;2023-01-13T09:03:47;100419.59;;;9.40;70.32
64158;BME280;50449;51.528;5.076;2023-01-13T09:06:12;100423.09;;;9.41;70.34
64158;BME280;50449;51.528;5.076;2023-01-13T09:08:37;100422.31;;;9.40;70.38
64158;BME280;50449;51.528;5.076;2023-01-13T09:11:03;100414.44;;;9.39;70.54
64158;BME280;50449;51.528;5.076;2023-01-13T09:13:48;100425.00;;;9.40;70.11
64158;BME280;50449;51.528;5.076;2023-01-13T09:16:13;100427.91;;;9.39;70.29
64158;BME280;50449;51.528;5.076;2023-01-13T09:18:39;100425.22;;;9.39;70.51
64158;BME280;50449;51.528;5.076;2023-01-13T09:21:04;100420.06;;;9.37;70.32
64158;BME280;50449;51.528;5.076;2023-01-13T09:23:29;100431.91;;;9.36;70.52
64158;BME280;50449;51.528;5.076;2023-01-13T09:25:55;100436.50;;;9.36;70.10
64158;BME280;50449;51.528;5.076;2023-01-13T09:28:20;100435.44;;;9.37;70.24
64158;BME280;50449;51.528;5.076;2023-01-13T09:30:45;100456.75;;;9.38;70.21
64158;BME280;50449;51.528;5.076;2023-01-13T09:33:10;100462.16;;;9.38;70.36
64158;BME280;50449;51.528;5.076;2023-01-13T09:35:57;100455.09;;;9.37;70.16
64158;BME280;50449;51.528;5.076;2023-01-13T09:38:23;100461.34;;;9.38;70.49
64158;BME280;50449;51.528;5.076;2023-01-13T09:40:48;100462.38;;;9.37;70.23
64158;BME280;50449;51.528;5.076;2023-01-13T09:43:16;100468.59;;;9.37;70.24
64158;BME280;50449;51.528;5.076;2023-01-13T09:46:04;100465.06;;;9.37;70.12
64158;BME280;50449;51.528;5.076;2023-01-13T09:48:54;100474.81;;;9.38;70.35
64158;BME280;50449;51.528;5.076;2023-01-13T09:51:23;100474.56;;;9.39;70.23
64158;BME280;50449;51.528;5.076;2023-01-13T09:53:54;100470.25;;;9.38;70.18
64158;BME280;50449;51.528;5.076;2023-01-13T09:56:21;100490.72;;;9.39;70.36
64158;BME280;50449;51.528;5.076;2023-01-13T09:58:46;100489.91;;;9.39;70.31
64158;BME280;50449;51.528;5.076;2023-01-13T10:01:20;100481.84;;;9.39;70.05
64158;BME280;50449;51.528;5.076;2023-01-13T10:03:49;100501.50;;;9.39;70.23
64158;BME280;50449;51.528;5.076;2023-01-13T10:08:40;100509.38;;;9.41;70.35
64158;BME280;50449;51.528;5.076;2023-01-13T10:11:25;100509.38;;;9.41;70.21
64158;BME280;50449;51.528;5.076;2023-01-13T10:14:23;100517.19;;;9.42;70.28
64158;BME280;50449;51.528;5.076;2023-01-13T10:19:32;100535.03;;;9.43;70.50
64158;BME280;50449;51.528;5.076;2023-01-13T10:27:27;100542.88;;;9.45;70.43
64158;BME280;50449;51.528;5.076;2023-01-13T10:29:53;100533.97;;;9.44;70.62
64158;BME280;50449;51.528;5.076;2023-01-13T10:32:18;100535.84;;;9.44;70.72
64158;BME280;50449;51.528;5.076;2023-01-13T10:34:47;100541.25;;;9.44;70.41
64158;BME280;50449;51.528;5.076;2023-01-13T10:37:22;100553.66;;;9.45;70.52
64158;BME280;50449;51.528;5.076;2023-01-13T10:39:48;100559.03;;;9.45;70.52
64158;BME280;50449;51.528;5.076;2023-01-13T10:42:18;100553.66;;;9.45;70.77
64158;BME280;50449;51.528;5.076;2023-01-13T10:44:46;100544.53;;;9.46;70.50
64158;BME280;50449;51.528;5.076;2023-01-13T10:47:20;100544.53;;;9.46;70.68
64158;BME280;50449;51.528;5.076;2023-01-13T10:49:57;100555.31;;;9.46;70.64
64158;BME280;50449;51.528;5.076;2023-01-13T10:52:26;100539.94;;;9.46;70.77
64158;BME280;50449;51.528;5.076;2023-01-13T10:54:53;100541.81;;;9.46;70.46
64158;BME280;50449;51.528;5.076;2023-01-13T10:57:21;100536.16;;;9.47;70.43
64158;BME280;50449;51.528;5.076;2023-01-13T10:59:47;100546.16;;;9.47;70.33
64158;BME280;50449;51.528;5.076;2023-01-13T11:04:56;100547.81;;;9.48;70.81
64158;BME280;50449;51.528;5.076;2023-01-13T11:07:27;100553.19;;;9.48;70.36
64158;BME280;50449;51.528;5.076;2023-01-13T11:10:27;100558.59;;;9.48;70.84
64158;BME280;50449;51.528;5.076;2023-01-13T11:12:46;100566.09;;;9.46;70.68
64158;BME280;50449;51.528;5.076;2023-01-13T11:15:15;100571.22;;;9.47;70.85
64158;BME280;50449;51.528;5.076;2023-01-13T11:17:50;100573.91;;;9.47;70.85
64158;BME280;50449;51.528;5.076;2023-01-13T11:20:25;100565.84;;;9.47;70.83
64158;BME280;50449;51.528;5.076;2023-01-13T11:22:56;100572.06;;;9.48;70.81
64158;BME280;50449;51.528;5.076;2023-01-13T11:25:25;100573.91;;;9.47;70.89
64158;BME280;50449;51.528;5.076;2023-01-13T11:28:28;100582.84;;;9.48;70.76
64158;BME280;50449;51.528;5.076;2023-01-13T11:31:05;100587.16;;;9.49;70.81
64158;BME280;50449;51.528;5.076;2023-01-13T11:33:37;100586.94;;;9.50;70.92
64158;BME280;50449;51.528;5.076;2023-01-13T11:36:05;100581.56;;;9.50;70.74
64158;BME280;50449;51.528;5.076;2023-01-13T11:41:03;100589.63;;;9.50;70.74
64158;BME280;50449;51.528;5.076;2023-01-13T11:46:14;100591.75;;;9.48;70.66
64158;BME280;50449;51.528;5.076;2023-01-13T11:48:40;100597.97;;;9.49;70.81
64158;BME280;50449;51.528;5.076;2023-01-13T12:06:47;100603.13;;;9.50;70.83
64158;BME280;50449;51.528;5.076;2023-01-13T12:09:20;100617.41;;;9.51;70.62
64158;BME280;50449;51.528;5.076;2023-01-13T12:17:25;100624.44;;;9.52;70.65
64158;BME280;50449;51.528;5.076;2023-01-13T12:19:55;100640.63;;;9.52;70.54
64158;BME280;50449;51.528;5.076;2023-01-13T12:22:25;100619.03;;;9.52;70.41
64158;BME280;50449;51.528;5.076;2023-01-13T12:25:00;100619.88;;;9.52;70.56
64158;BME280;50449;51.528;5.076;2023-01-13T12:29:53;100621.50;;;9.53;70.31
64158;BME280;50449;51.528;5.076;2023-01-13T12:32:26;100629.59;;;9.53;70.20
64158;BME280;50449;51.528;5.076;2023-01-13T12:37:38;100635.59;;;9.56;69.73
64158;BME280;50449;51.528;5.076;2023-01-13T12:43:05;100639.69;;;9.58;69.60
64158;BME280;50449;51.528;5.076;2023-01-13T12:45:53;100645.06;;;9.58;69.83
64158;BME280;50449;51.528;5.076;2023-01-13T12:53:46;100659.16;;;9.60;69.69
64158;BME280;50449;51.528;5.076;2023-01-13T12:58:48;100670.75;;;9.61;69.73
64158;BME280;50449;51.528;5.076;2023-01-13T13:01:13;100655.38;;;9.61;69.93
64158;BME280;50449;51.528;5.076;2023-01-13T13:03:39;100673.44;;;9.61;69.79
64158;BME280;50449;51.528;5.076;2023-01-13T13:06:05;100671.56;;;9.61;69.73
64158;BME280;50449;51.528;5.076;2023-01-13T13:13:56;100678.84;;;9.61;69.55
64158;BME280;50449;51.528;5.076;2023-01-13T13:18:51;100693.72;;;9.63;69.71
64158;BME280;50449;51.528;5.076;2023-01-13T13:21:16;100702.63;;;9.64;69.73
64158;BME280;50449;51.528;5.076;2023-01-13T13:26:29;100705.09;;;9.65;69.78
64158;BME280;50449;51.528;5.076;2023-01-13T13:29:18;100708.84;;;9.64;69.77
64158;BME280;50449;51.528;5.076;2023-01-13T13:39:25;100715.63;;;9.67;69.83
64158;BME280;50449;51.528;5.076;2023-01-13T13:42:14;100712.94;;;9.67;69.80
64158;BME280;50449;51.528;5.076;2023-01-13T13:45:22;100731.59;;;9.68;69.80
64158;BME280;50449;51.528;5.076;2023-01-13T13:48:20;100732.19;;;9.70;69.82
64158;BME280;50449;51.528;5.076;2023-01-13T13:50:47;100743.19;;;9.69;69.78
64158;BME280;50449;51.528;5.076;2023-01-13T13:53:13;100729.69;;;9.69;69.73
64158;BME280;50449;51.528;5.076;2023-01-13T13:55:38;100732.63;;;9.67;69.81
64158;BME280;50449;51.528;5.076;2023-01-13T13:58:04;100747.78;;;9.68;69.74
64158;BME280;50449;51.528;5.076;2023-01-13T14:00:31;100747.78;;;9.68;69.71
64158;BME280;50449;51.528;5.076;2023-01-13T14:03:15;100738.00;;;9.67;69.76
64158;BME280;50449;51.528;5.076;2023-01-13T14:05:51;100765.84;;;9.68;69.80
64158;BME280;50449;51.528;5.076;2023-01-13T14:08:17;100767.25;;;9.70;69.80
64158;BME280;50449;51.528;5.076;2023-01-13T14:10:43;100769.09;;;9.70;69.76
64158;BME280;50449;51.528;5.076;2023-01-13T14:13:25;100776.16;;;9.71;69.84
64158;BME280;50449;51.528;5.076;2023-01-13T14:15:59;100780.47;;;9.72;69.97
64158;BME280;50449;51.528;5.076;2023-01-13T14:18:26;100778.03;;;9.70;69.90
64158;BME280;50449;51.528;5.076;2023-01-13T14:20:57;100787.16;;;9.69;69.84
64158;BME280;50449;51.528;5.076;2023-01-13T14:23:28;100789.03;;;9.69;70.00
64158;BME280;50449;51.528;5.076;2023-01-13T14:25:54;100807.69;;;9.70;69.77
64158;BME280;50449;51.528;5.076;2023-01-13T14:28:20;100817.41;;;9.71;69.76
64158;BME280;50449;51.528;5.076;2023-01-13T14:30:47;100814.72;;;9.71;69.85
64158;BME280;50449;51.528;5.076;2023-01-13T14:33:19;100827.13;;;9.72;69.98
64158;BME280;50449;51.528;5.076;2023-01-13T14:36:05;100827.13;;;9.72;69.69
64158;BME280;50449;51.528;5.076;2023-01-13T14:38:30;100833.38;;;9.73;69.87
64158;BME280;50449;51.528;5.076;2023-01-13T14:40:55;100852.00;;;9.74;69.91
64158;BME280;50449;51.528;5.076;2023-01-13T14:43:22;100842.03;;;9.75;69.87
64158;BME280;50449;51.528;5.076;2023-01-13T14:45:55;100843.69;;;9.76;69.80
64158;BME280;50449;51.528;5.076;2023-01-13T14:48:22;100852.38;;;9.78;69.84